sensor_id;sensor_type;location;lat;lon;timestamp;P1;durP1;ratioP1;P2;durP2;ratioP2
4182;SDS011;2105;52.300;9.182;2022-12-10T00:01:04;52.93;;;28.27;;
4182;SDS011;2105;52.300;9.182;2022-12-10T00:03:34;43.47;;;26.70;;
4182;SDS011;2105;52.300;9.182;2022-12-10T00:06:02;44.67;;;26.80;;
4182;SDS011;2105;52.300;9.182;2022-12-10T00:08:30;57.80;;;31.97;;
4182;SDS011;2105;52.300;9.182;2022-12-10T00:10:57;56.87;;;33.20;;
4182;SDS011;2105;52.300;9.182;2022-12-10T00:13:24;49.47;;;31.10;;
4182;SDS011;2105;52.300;9.182;2022-12-10T00:15:51;43.27;;;26.93;;
4182;SDS011;2105;52.300;9.182;2022-12-10T00:18:18;53.57;;;28.47;;
4182;SDS011;2105;52.300;9.182;2022-12-10T00:20:46;45.70;;;28.00;;
4182;SDS011;2105;52.300;9.182;2022-12-10T00:23:13;38.90;;;25.83;;
4182;SDS011;2105;52.300;9.182;2022-12-10T00:25:40;38.47;;;25.53;;
4182;SDS011;2105;52.300;9.182;2022-12-10T00:28:07;41.60;;;25.90;;
4182;SDS011;2105;52.300;9.182;2022-12-10T00:30:34;36.83;;;24.93;;
4182;SDS011;2105;52.300;9.182;2022-12-10T00:33:03;41.50;;;24.97;;
4182;SDS011;2105;52.300;9.182;2022-12-10T00:35:30;38.70;;;25.50;;
4182;SDS011;2105;52.300;9.182;2022-12-10T00:37:58;40.47;;;25.50;;
4182;SDS011;2105;52.300;9.182;2022-12-10T00:40:25;44.43;;;25.47;;
4182;SDS011;2105;52.300;9.182;2022-12-10T00:42:53;37.80;;;26.57;;
4182;SDS011;2105;52.300;9.182;2022-12-10T00:45:19;38.87;;;25.73;;
4182;SDS011;2105;52.300;9.182;2022-12-10T00:47:46;38.87;;;26.20;;
4182;SDS011;2105;52.300;9.182;2022-12-10T00:50:13;43.27;;;26.60;;
4182;SDS011;2105;52.300;9.182;2022-12-10T00:52:40;38.93;;;25.13;;
4182;SDS011;2105;52.300;9.182;2022-12-10T00:55:09;53.80;;;29.80;;
4182;SDS011;2105;52.300;9.182;2022-12-10T00:57:36;43.60;;;27.87;;
4182;SDS011;2105;52.300;9.182;2022-12-10T01:00:03;45.17;;;26.10;;
4182;SDS011;2105;52.300;9.182;2022-12-10T01:02:31;42.60;;;27.00;;
4182;SDS011;2105;52.300;9.182;2022-12-10T01:04:57;44.00;;;27.03;;
4182;SDS011;2105;52.300;9.182;2022-12-10T01:07:24;49.23;;;27.27;;
4182;SDS011;2105;52.300;9.182;2022-12-10T01:09:51;58.37;;;29.03;;
4182;SDS011;2105;52.300;9.182;2022-12-10T01:12:20;48.87;;;28.07;;
4182;SDS011;2105;52.300;9.182;2022-12-10T01:14:47;48.13;;;28.03;;
4182;SDS011;2105;52.300;9.182;2022-12-10T01:17:13;51.63;;;27.97;;
4182;SDS011;2105;52.300;9.182;2022-12-10T01:19:40;45.70;;;26.53;;
4182;SDS011;2105;52.300;9.182;2022-12-10T01:22:07;43.33;;;27.13;;
4182;SDS011;2105;52.300;9.182;2022-12-10T01:24:34;45.63;;;26.83;;
4182;SDS011;2105;52.300;9.182;2022-12-10T01:27:03;48.50;;;28.23;;
4182;SDS011;2105;52.300;9.182;2022-12-10T01:29:32;45.67;;;27.00;;
4182;SDS011;2105;52.300;9.182;2022-12-10T01:31:59;44.87;;;26.30;;
4182;SDS011;2105;52.300;9.182;2022-12-10T01:34:25;43.27;;;26.10;;
4182;SDS011;2105;52.300;9.182;2022-12-10T01:36:53;48.10;;;26.57;;
4182;SDS011;2105;52.300;9.182;2022-12-10T01:39:21;47.37;;;27.77;;
4182;SDS011;2105;52.300;9.182;2022-12-10T01:41:50;45.90;;;27.50;;
4182;SDS011;2105;52.300;9.182;2022-12-10T01:47:38;47.43;;;27.37;;
4182;SDS011;2105;52.300;9.182;2022-12-10T01:50:05;49.53;;;27.00;;
4182;SDS011;2105;52.300;9.182;2022-12-10T01:52:34;60.73;;;29.33;;
4182;SDS011;2105;52.300;9.182;2022-12-10T01:55:02;53.67;;;29.17;;
4182;SDS011;2105;52.300;9.182;2022-12-10T01:57:34;56.77;;;28.83;;
4182;SDS011;2105;52.300;9.182;2022-12-10T02:00:04;51.83;;;27.23;;
4182;SDS011;2105;52.300;9.182;2022-12-10T02:02:38;54.07;;;29.13;;
4182;SDS011;2105;52.300;9.182;2022-12-10T02:05:23;56.37;;;29.03;;
4182;SDS011;2105;52.300;9.182;2022-12-10T02:07:58;53.07;;;26.27;;
4182;SDS011;2105;52.300;9.182;2022-12-10T02:10:35;59.73;;;28.67;;
4182;SDS011;2105;52.300;9.182;2022-12-10T02:13:11;66.07;;;29.47;;
4182;SDS011;2105;52.300;9.182;2022-12-10T02:15:46;73.07;;;30.47;;
4182;SDS011;2105;52.300;9.182;2022-12-10T02:18:19;79.73;;;30.67;;
4182;SDS011;2105;52.300;9.182;2022-12-10T02:20:52;80.87;;;32.53;;
4182;SDS011;2105;52.300;9.182;2022-12-10T02:23:24;84.47;;;32.63;;
4182;SDS011;2105;52.300;9.182;2022-12-10T02:25:55;84.60;;;33.23;;
4182;SDS011;2105;52.300;9.182;2022-12-10T02:28:27;92.00;;;33.50;;
4182;SDS011;2105;52.300;9.182;2022-12-10T02:31:07;80.93;;;31.73;;
4182;SDS011;2105;52.300;9.182;2022-12-10T02:33:38;83.90;;;31.77;;
4182;SDS011;2105;52.300;9.182;2022-12-10T02:36:14;76.13;;;32.30;;
4182;SDS011;2105;52.300;9.182;2022-12-10T02:38:52;77.57;;;31.30;;
4182;SDS011;2105;52.300;9.182;2022-12-10T02:41:26;71.93;;;30.63;;
4182;SDS011;2105;52.300;9.182;2022-12-10T02:44:04;84.67;;;33.17;;
4182;SDS011;2105;52.300;9.182;2022-12-10T02:46:38;75.87;;;32.80;;
4182;SDS011;2105;52.300;9.182;2022-12-10T02:49:07;70.60;;;31.03;;
4182;SDS011;2105;52.300;9.182;2022-12-10T02:51:36;66.60;;;30.77;;
4182;SDS011;2105;52.300;9.182;2022-12-10T02:54:06;72.87;;;32.33;;
4182;SDS011;2105;52.300;9.182;2022-12-10T02:56:50;64.27;;;29.93;;
4182;SDS011;2105;52.300;9.182;2022-12-10T02:59:25;63.00;;;29.63;;
4182;SDS011;2105;52.300;9.182;2022-12-10T03:02:06;66.33;;;30.30;;
4182;SDS011;2105;52.300;9.182;2022-12-10T03:04:39;66.53;;;30.80;;
4182;SDS011;2105;52.300;9.182;2022-12-10T03:07:14;74.10;;;30.90;;
4182;SDS011;2105;52.300;9.182;2022-12-10T03:09:51;63.50;;;29.60;;
4182;SDS011;2105;52.300;9.182;2022-12-10T03:12:22;63.80;;;31.37;;
4182;SDS011;2105;52.300;9.182;2022-12-10T03:14:54;58.87;;;30.40;;
4182;SDS011;2105;52.300;9.182;2022-12-10T03:17:29;66.40;;;32.67;;
4182;SDS011;2105;52.300;9.182;2022-12-10T03:19:57;68.03;;;31.80;;
4182;SDS011;2105;52.300;9.182;2022-12-10T03:22:26;64.63;;;30.47;;
4182;SDS011;2105;52.300;9.182;2022-12-10T03:24:55;65.17;;;32.03;;
4182;SDS011;2105;52.300;9.182;2022-12-10T03:27:26;73.47;;;33.13;;
4182;SDS011;2105;52.300;9.182;2022-12-10T03:29:56;85.53;;;32.90;;
4182;SDS011;2105;52.300;9.182;2022-12-10T03:32:29;76.00;;;32.07;;
4182;SDS011;2105;52.300;9.182;2022-12-10T03:34:57;87.97;;;34.30;;
4182;SDS011;2105;52.300;9.182;2022-12-10T03:37:26;79.43;;;33.40;;
4182;SDS011;2105;52.300;9.182;2022-12-10T03:39:55;83.63;;;34.30;;
4182;SDS011;2105;52.300;9.182;2022-12-10T03:42:24;81.20;;;34.73;;
4182;SDS011;2105;52.300;9.182;2022-12-10T03:44:51;89.43;;;35.07;;
4182;SDS011;2105;52.300;9.182;2022-12-10T03:47:18;77.27;;;31.83;;
4182;SDS011;2105;52.300;9.182;2022-12-10T03:49:47;78.33;;;32.90;;
4182;SDS011;2105;52.300;9.182;2022-12-10T03:52:16;62.10;;;31.83;;
4182;SDS011;2105;52.300;9.182;2022-12-10T03:54:44;73.80;;;32.33;;
4182;SDS011;2105;52.300;9.182;2022-12-10T03:57:13;75.00;;;32.63;;
4182;SDS011;2105;52.300;9.182;2022-12-10T03:59:42;80.00;;;32.80;;
4182;SDS011;2105;52.300;9.182;2022-12-10T04:02:09;88.93;;;33.63;;
4182;SDS011;2105;52.300;9.182;2022-12-10T04:04:38;73.73;;;31.13;;
4182;SDS011;2105;52.300;9.182;2022-12-10T04:07:12;78.37;;;33.70;;
4182;SDS011;2105;52.300;9.182;2022-12-10T04:09:42;80.07;;;32.80;;
4182;SDS011;2105;52.300;9.182;2022-12-10T04:12:09;90.50;;;34.00;;
4182;SDS011;2105;52.300;9.182;2022-12-10T04:14:52;83.97;;;32.40;;
4182;SDS011;2105;52.300;9.182;2022-12-10T04:17:38;91.47;;;33.33;;
4182;SDS011;2105;52.300;9.182;2022-12-10T04:20:16;77.63;;;32.80;;
4182;SDS011;2105;52.300;9.182;2022-12-10T04:23:24;82.97;;;32.03;;
4182;SDS011;2105;52.300;9.182;2022-12-10T04:26:08;74.87;;;32.07;;
4182;SDS011;2105;52.300;9.182;2022-12-10T04:28:55;75.67;;;34.03;;
4182;SDS011;2105;52.300;9.182;2022-12-10T04:31:23;90.07;;;34.20;;
4182;SDS011;2105;52.300;9.182;2022-12-10T04:33:50;79.40;;;32.00;;
4182;SDS011;2105;52.300;9.182;2022-12-10T04:36:17;75.90;;;31.60;;
4182;SDS011;2105;52.300;9.182;2022-12-10T04:38:49;75.47;;;33.07;;
4182;SDS011;2105;52.300;9.182;2022-12-10T04:41:15;83.30;;;33.00;;
4182;SDS011;2105;52.300;9.182;2022-12-10T04:43:44;79.73;;;31.63;;
4182;SDS011;2105;52.300;9.182;2022-12-10T04:46:13;71.63;;;31.67;;
4182;SDS011;2105;52.300;9.182;2022-12-10T04:48:41;81.47;;;33.20;;
4182;SDS011;2105;52.300;9.182;2022-12-10T04:51:11;70.40;;;30.17;;
4182;SDS011;2105;52.300;9.182;2022-12-10T04:53:39;64.50;;;30.27;;
4182;SDS011;2105;52.300;9.182;2022-12-10T04:56:08;74.10;;;31.10;;
4182;SDS011;2105;52.300;9.182;2022-12-10T04:58:37;80.33;;;33.80;;
4182;SDS011;2105;52.300;9.182;2022-12-10T05:01:10;87.40;;;33.23;;
4182;SDS011;2105;52.300;9.182;2022-12-10T05:03:40;83.57;;;32.70;;
4182;SDS011;2105;52.300;9.182;2022-12-10T05:06:22;77.00;;;32.23;;
4182;SDS011;2105;52.300;9.182;2022-12-10T05:08:53;83.70;;;33.07;;
4182;SDS011;2105;52.300;9.182;2022-12-10T05:11:25;76.03;;;30.97;;
4182;SDS011;2105;52.300;9.182;2022-12-10T05:14:12;72.20;;;30.40;;
4182;SDS011;2105;52.300;9.182;2022-12-10T05:16:58;94.40;;;32.50;;
4182;SDS011;2105;52.300;9.182;2022-12-10T05:19:38;109.63;;;35.10;;
4182;SDS011;2105;52.300;9.182;2022-12-10T05:22:22;100.20;;;32.17;;
4182;SDS011;2105;52.300;9.182;2022-12-10T05:25:12;114.27;;;36.60;;
4182;SDS011;2105;52.300;9.182;2022-12-10T05:30:37;106.10;;;36.13;;
4182;SDS011;2105;52.300;9.182;2022-12-10T05:33:08;115.77;;;37.03;;
4182;SDS011;2105;52.300;9.182;2022-12-10T05:35:38;100.33;;;35.57;;
4182;SDS011;2105;52.300;9.182;2022-12-10T05:38:13;112.73;;;35.47;;
4182;SDS011;2105;52.300;9.182;2022-12-10T05:40:48;118.87;;;35.70;;
4182;SDS011;2105;52.300;9.182;2022-12-10T05:43:25;109.80;;;32.97;;
4182;SDS011;2105;52.300;9.182;2022-12-10T05:46:15;117.67;;;36.93;;
4182;SDS011;2105;52.300;9.182;2022-12-10T05:51:37;118.43;;;36.20;;
4182;SDS011;2105;52.300;9.182;2022-12-10T05:54:08;115.20;;;35.30;;
4182;SDS011;2105;52.300;9.182;2022-12-10T05:56:39;105.63;;;38.00;;
4182;SDS011;2105;52.300;9.182;2022-12-10T05:59:20;117.30;;;36.57;;
4182;SDS011;2105;52.300;9.182;2022-12-10T06:01:54;104.97;;;35.10;;
4182;SDS011;2105;52.300;9.182;2022-12-10T06:04:30;106.17;;;35.53;;
4182;SDS011;2105;52.300;9.182;2022-12-10T06:07:11;103.77;;;36.27;;
4182;SDS011;2105;52.300;9.182;2022-12-10T06:09:44;113.33;;;34.40;;
4182;SDS011;2105;52.300;9.182;2022-12-10T06:12:50;96.17;;;34.60;;
4182;SDS011;2105;52.300;9.182;2022-12-10T06:15:05;98.37;;;34.27;;
4182;SDS011;2105;52.300;9.182;2022-12-10T06:17:36;110.50;;;36.23;;
4182;SDS011;2105;52.300;9.182;2022-12-10T06:20:24;97.97;;;36.33;;
4182;SDS011;2105;52.300;9.182;2022-12-10T06:22:58;90.53;;;33.20;;
4182;SDS011;2105;52.300;9.182;2022-12-10T06:25:31;96.47;;;33.47;;
4182;SDS011;2105;52.300;9.182;2022-12-10T06:28:03;98.20;;;35.20;;
4182;SDS011;2105;52.300;9.182;2022-12-10T06:30:41;83.03;;;33.50;;
4182;SDS011;2105;52.300;9.182;2022-12-10T06:33:08;77.87;;;31.70;;
4182;SDS011;2105;52.300;9.182;2022-12-10T06:35:38;84.23;;;32.83;;
4182;SDS011;2105;52.300;9.182;2022-12-10T06:38:05;78.17;;;31.83;;
4182;SDS011;2105;52.300;9.182;2022-12-10T06:40:46;88.13;;;33.00;;
4182;SDS011;2105;52.300;9.182;2022-12-10T06:43:30;67.53;;;30.67;;
4182;SDS011;2105;52.300;9.182;2022-12-10T06:46:25;75.23;;;31.40;;
4182;SDS011;2105;52.300;9.182;2022-12-10T06:49:32;76.93;;;32.30;;
4182;SDS011;2105;52.300;9.182;2022-12-10T06:52:16;80.10;;;32.50;;
4182;SDS011;2105;52.300;9.182;2022-12-10T06:55:14;81.90;;;32.97;;
4182;SDS011;2105;52.300;9.182;2022-12-10T06:58:03;82.07;;;32.10;;
4182;SDS011;2105;52.300;9.182;2022-12-10T07:00:53;81.03;;;33.30;;
4182;SDS011;2105;52.300;9.182;2022-12-10T07:03:55;97.80;;;34.90;;
4182;SDS011;2105;52.300;9.182;2022-12-10T07:12:27;89.47;;;32.13;;
4182;SDS011;2105;52.300;9.182;2022-12-10T07:15:13;84.53;;;32.20;;
4182;SDS011;2105;52.300;9.182;2022-12-10T07:18:02;78.03;;;31.73;;
4182;SDS011;2105;52.300;9.182;2022-12-10T07:23:40;84.30;;;34.20;;
4182;SDS011;2105;52.300;9.182;2022-12-10T07:26:16;87.33;;;33.27;;
4182;SDS011;2105;52.300;9.182;2022-12-10T07:29:19;95.03;;;32.40;;
4182;SDS011;2105;52.300;9.182;2022-12-10T07:31:54;82.87;;;32.73;;
4182;SDS011;2105;52.300;9.182;2022-12-10T07:34:27;86.83;;;34.57;;
4182;SDS011;2105;52.300;9.182;2022-12-10T07:36:56;87.67;;;31.93;;
4182;SDS011;2105;52.300;9.182;2022-12-10T07:39:36;72.40;;;30.50;;
4182;SDS011;2105;52.300;9.182;2022-12-10T07:42:09;82.73;;;32.10;;
4182;SDS011;2105;52.300;9.182;2022-12-10T07:44:40;82.60;;;31.17;;
4182;SDS011;2105;52.300;9.182;2022-12-10T07:47:13;67.53;;;30.17;;
4182;SDS011;2105;52.300;9.182;2022-12-10T07:49:47;72.13;;;30.87;;
4182;SDS011;2105;52.300;9.182;2022-12-10T07:52:46;74.80;;;31.90;;
4182;SDS011;2105;52.300;9.182;2022-12-10T07:55:19;72.37;;;31.73;;
4182;SDS011;2105;52.300;9.182;2022-12-10T08:04:48;68.60;;;33.40;;
4182;SDS011;2105;52.300;9.182;2022-12-10T08:07:42;78.67;;;33.80;;
4182;SDS011;2105;52.300;9.182;2022-12-10T08:10:50;78.40;;;34.77;;
4182;SDS011;2105;52.300;9.182;2022-12-10T08:13:33;70.30;;;33.20;;
4182;SDS011;2105;52.300;9.182;2022-12-10T08:21:11;64.43;;;30.23;;
4182;SDS011;2105;52.300;9.182;2022-12-10T08:23:28;71.77;;;32.87;;
4182;SDS011;2105;52.300;9.182;2022-12-10T08:29:03;67.80;;;31.43;;
4182;SDS011;2105;52.300;9.182;2022-12-10T08:31:30;63.73;;;31.20;;
4182;SDS011;2105;52.300;9.182;2022-12-10T08:33:57;70.97;;;31.10;;
4182;SDS011;2105;52.300;9.182;2022-12-10T08:36:24;72.97;;;32.63;;
4182;SDS011;2105;52.300;9.182;2022-12-10T08:38:51;65.13;;;30.10;;
4182;SDS011;2105;52.300;9.182;2022-12-10T08:41:18;69.27;;;31.73;;
4182;SDS011;2105;52.300;9.182;2022-12-10T08:43:47;57.80;;;29.53;;
4182;SDS011;2105;52.300;9.182;2022-12-10T08:46:16;66.80;;;32.33;;
4182;SDS011;2105;52.300;9.182;2022-12-10T08:48:43;66.27;;;31.40;;
4182;SDS011;2105;52.300;9.182;2022-12-10T08:51:10;54.53;;;28.63;;
4182;SDS011;2105;52.300;9.182;2022-12-10T08:53:40;60.40;;;31.07;;
4182;SDS011;2105;52.300;9.182;2022-12-10T08:56:07;64.40;;;30.00;;
4182;SDS011;2105;52.300;9.182;2022-12-10T08:58:34;61.70;;;31.33;;
4182;SDS011;2105;52.300;9.182;2022-12-10T09:01:04;67.37;;;32.40;;
4182;SDS011;2105;52.300;9.182;2022-12-10T09:03:33;67.67;;;31.27;;
4182;SDS011;2105;52.300;9.182;2022-12-10T09:06:02;65.27;;;31.03;;
4182;SDS011;2105;52.300;9.182;2022-12-10T09:08:29;61.60;;;30.93;;
4182;SDS011;2105;52.300;9.182;2022-12-10T09:10:56;61.97;;;32.40;;
4182;SDS011;2105;52.300;9.182;2022-12-10T09:13:23;62.77;;;32.50;;
4182;SDS011;2105;52.300;9.182;2022-12-10T09:15:50;57.60;;;29.10;;
4182;SDS011;2105;52.300;9.182;2022-12-10T09:18:17;62.70;;;30.27;;
4182;SDS011;2105;52.300;9.182;2022-12-10T09:20:46;60.70;;;30.93;;
4182;SDS011;2105;52.300;9.182;2022-12-10T09:23:13;66.00;;;31.77;;
4182;SDS011;2105;52.300;9.182;2022-12-10T09:25:40;59.93;;;29.93;;
4182;SDS011;2105;52.300;9.182;2022-12-10T09:28:06;66.13;;;31.20;;
4182;SDS011;2105;52.300;9.182;2022-12-10T09:30:33;61.77;;;30.80;;
4182;SDS011;2105;52.300;9.182;2022-12-10T09:33:00;57.40;;;30.43;;
4182;SDS011;2105;52.300;9.182;2022-12-10T09:35:27;67.10;;;31.40;;
4182;SDS011;2105;52.300;9.182;2022-12-10T09:37:55;72.70;;;33.97;;
4182;SDS011;2105;52.300;9.182;2022-12-10T09:40:23;63.50;;;30.17;;
4182;SDS011;2105;52.300;9.182;2022-12-10T09:42:58;52.97;;;30.70;;
4182;SDS011;2105;52.300;9.182;2022-12-10T09:45:32;61.80;;;32.20;;
4182;SDS011;2105;52.300;9.182;2022-12-10T09:48:10;60.17;;;31.00;;
4182;SDS011;2105;52.300;9.182;2022-12-10T09:50:48;54.70;;;30.97;;
4182;SDS011;2105;52.300;9.182;2022-12-10T09:53:21;62.70;;;31.87;;
4182;SDS011;2105;52.300;9.182;2022-12-10T09:55:50;64.30;;;32.20;;
4182;SDS011;2105;52.300;9.182;2022-12-10T09:58:18;68.33;;;33.83;;
4182;SDS011;2105;52.300;9.182;2022-12-10T10:00:47;69.93;;;32.97;;
4182;SDS011;2105;52.300;9.182;2022-12-10T10:03:18;62.03;;;32.60;;
4182;SDS011;2105;52.300;9.182;2022-12-10T10:05:45;62.70;;;32.27;;
4182;SDS011;2105;52.300;9.182;2022-12-10T10:08:17;61.90;;;31.97;;
4182;SDS011;2105;52.300;9.182;2022-12-10T10:10:52;57.47;;;30.93;;
4182;SDS011;2105;52.300;9.182;2022-12-10T10:13:21;61.53;;;32.20;;
4182;SDS011;2105;52.300;9.182;2022-12-10T10:15:55;70.47;;;32.20;;
4182;SDS011;2105;52.300;9.182;2022-12-10T10:18:26;59.20;;;31.80;;
4182;SDS011;2105;52.300;9.182;2022-12-10T10:21:02;54.77;;;30.13;;
4182;SDS011;2105;52.300;9.182;2022-12-10T10:23:32;60.40;;;30.67;;
4182;SDS011;2105;52.300;9.182;2022-12-10T10:25:59;63.40;;;31.37;;
4182;SDS011;2105;52.300;9.182;2022-12-10T10:28:26;55.97;;;30.17;;
4182;SDS011;2105;52.300;9.182;2022-12-10T10:30:54;60.90;;;30.57;;
4182;SDS011;2105;52.300;9.182;2022-12-10T10:33:20;55.93;;;30.07;;
4182;SDS011;2105;52.300;9.182;2022-12-10T10:35:48;54.37;;;29.70;;
4182;SDS011;2105;52.300;9.182;2022-12-10T10:38:20;55.63;;;31.83;;
4182;SDS011;2105;52.300;9.182;2022-12-10T10:40:50;55.40;;;30.63;;
4182;SDS011;2105;52.300;9.182;2022-12-10T10:43:20;54.00;;;31.10;;
4182;SDS011;2105;52.300;9.182;2022-12-10T10:45:51;63.63;;;31.47;;
4182;SDS011;2105;52.300;9.182;2022-12-10T10:48:21;51.90;;;30.20;;
4182;SDS011;2105;52.300;9.182;2022-12-10T10:50:50;51.87;;;29.37;;
4182;SDS011;2105;52.300;9.182;2022-12-10T10:53:22;54.50;;;30.53;;
4182;SDS011;2105;52.300;9.182;2022-12-10T10:55:56;53.80;;;30.23;;
4182;SDS011;2105;52.300;9.182;2022-12-10T10:58:27;57.13;;;30.13;;
4182;SDS011;2105;52.300;9.182;2022-12-10T11:00:56;56.10;;;30.53;;
4182;SDS011;2105;52.300;9.182;2022-12-10T11:03:25;51.20;;;28.37;;
4182;SDS011;2105;52.300;9.182;2022-12-10T11:05:54;61.70;;;30.20;;
4182;SDS011;2105;52.300;9.182;2022-12-10T11:08:22;52.03;;;28.70;;
4182;SDS011;2105;52.300;9.182;2022-12-10T11:10:56;51.57;;;30.63;;
4182;SDS011;2105;52.300;9.182;2022-12-10T11:13:28;53.10;;;29.57;;
4182;SDS011;2105;52.300;9.182;2022-12-10T11:15:57;50.20;;;28.90;;
4182;SDS011;2105;52.300;9.182;2022-12-10T11:18:29;56.87;;;30.67;;
4182;SDS011;2105;52.300;9.182;2022-12-10T11:21:03;52.83;;;31.13;;
4182;SDS011;2105;52.300;9.182;2022-12-10T11:23:35;54.50;;;31.00;;
4182;SDS011;2105;52.300;9.182;2022-12-10T11:29:14;58.30;;;31.00;;
4182;SDS011;2105;52.300;9.182;2022-12-10T11:31:53;60.63;;;30.80;;
4182;SDS011;2105;52.300;9.182;2022-12-10T11:34:30;56.50;;;31.67;;
4182;SDS011;2105;52.300;9.182;2022-12-10T11:37:11;64.37;;;34.00;;
4182;SDS011;2105;52.300;9.182;2022-12-10T11:39:51;57.37;;;30.80;;
4182;SDS011;2105;52.300;9.182;2022-12-10T11:42:38;63.97;;;30.97;;
4182;SDS011;2105;52.300;9.182;2022-12-10T11:45:17;59.80;;;31.80;;
4182;SDS011;2105;52.300;9.182;2022-12-10T11:47:52;64.03;;;33.13;;
4182;SDS011;2105;52.300;9.182;2022-12-10T11:50:31;66.73;;;32.53;;
4182;SDS011;2105;52.300;9.182;2022-12-10T11:55:58;59.97;;;33.90;;
4182;SDS011;2105;52.300;9.182;2022-12-10T11:58:45;51.17;;;31.27;;
4182;SDS011;2105;52.300;9.182;2022-12-10T12:01:25;48.07;;;30.33;;
4182;SDS011;2105;52.300;9.182;2022-12-10T12:04:10;57.70;;;29.10;;
4182;SDS011;2105;52.300;9.182;2022-12-10T12:07:05;49.90;;;30.03;;
4182;SDS011;2105;52.300;9.182;2022-12-10T12:09:50;52.37;;;31.63;;
4182;SDS011;2105;52.300;9.182;2022-12-10T12:12:31;52.30;;;30.50;;
4182;SDS011;2105;52.300;9.182;2022-12-10T12:15:11;51.60;;;28.33;;
4182;SDS011;2105;52.300;9.182;2022-12-10T12:17:45;47.30;;;28.77;;
4182;SDS011;2105;52.300;9.182;2022-12-10T12:20:19;63.80;;;35.80;;
4182;SDS011;2105;52.300;9.182;2022-12-10T12:22:52;67.33;;;35.10;;
4182;SDS011;2105;52.300;9.182;2022-12-10T12:25:23;61.63;;;32.40;;
4182;SDS011;2105;52.300;9.182;2022-12-10T12:27:55;49.70;;;30.73;;
4182;SDS011;2105;52.300;9.182;2022-12-10T12:30:27;53.13;;;30.97;;
4182;SDS011;2105;52.300;9.182;2022-12-10T12:33:02;49.47;;;30.20;;
4182;SDS011;2105;52.300;9.182;2022-12-10T12:35:40;51.83;;;30.40;;
4182;SDS011;2105;52.300;9.182;2022-12-10T12:38:17;49.77;;;29.87;;
4182;SDS011;2105;52.300;9.182;2022-12-10T12:40:53;47.70;;;29.37;;
4182;SDS011;2105;52.300;9.182;2022-12-10T12:43:25;48.70;;;30.00;;
4182;SDS011;2105;52.300;9.182;2022-12-10T12:46:09;51.97;;;29.77;;
4182;SDS011;2105;52.300;9.182;2022-12-10T12:48:42;45.90;;;29.97;;
4182;SDS011;2105;52.300;9.182;2022-12-10T12:51:19;48.27;;;29.80;;
4182;SDS011;2105;52.300;9.182;2022-12-10T12:53:50;48.50;;;28.97;;
4182;SDS011;2105;52.300;9.182;2022-12-10T12:56:21;43.60;;;28.37;;
4182;SDS011;2105;52.300;9.182;2022-12-10T12:58:55;45.30;;;28.97;;
4182;SDS011;2105;52.300;9.182;2022-12-10T13:01:30;43.10;;;29.23;;
4182;SDS011;2105;52.300;9.182;2022-12-10T13:04:03;44.10;;;28.37;;
4182;SDS011;2105;52.300;9.182;2022-12-10T13:06:32;46.80;;;30.77;;
4182;SDS011;2105;52.300;9.182;2022-12-10T13:14:56;54.70;;;32.47;;
4182;SDS011;2105;52.300;9.182;2022-12-10T13:17:38;48.90;;;31.57;;
4182;SDS011;2105;52.300;9.182;2022-12-10T13:20:34;51.93;;;31.20;;
4182;SDS011;2105;52.300;9.182;2022-12-10T13:23:26;51.33;;;31.47;;
4182;SDS011;2105;52.300;9.182;2022-12-10T13:25:57;46.37;;;30.37;;
4182;SDS011;2105;52.300;9.182;2022-12-10T13:28:28;53.17;;;30.67;;
4182;SDS011;2105;52.300;9.182;2022-12-10T13:31:17;49.10;;;31.77;;
4182;SDS011;2105;52.300;9.182;2022-12-10T13:33:48;51.53;;;31.63;;
4182;SDS011;2105;52.300;9.182;2022-12-10T13:36:23;47.50;;;30.00;;
4182;SDS011;2105;52.300;9.182;2022-12-10T13:38:56;46.70;;;29.87;;
4182;SDS011;2105;52.300;9.182;2022-12-10T13:41:38;50.40;;;30.97;;
4182;SDS011;2105;52.300;9.182;2022-12-10T13:44:31;45.00;;;29.83;;
4182;SDS011;2105;52.300;9.182;2022-12-10T13:47:22;52.77;;;29.90;;
4182;SDS011;2105;52.300;9.182;2022-12-10T13:49:52;50.10;;;30.57;;
4182;SDS011;2105;52.300;9.182;2022-12-10T13:52:25;52.10;;;31.57;;
4182;SDS011;2105;52.300;9.182;2022-12-10T13:55:07;50.13;;;30.40;;
4182;SDS011;2105;52.300;9.182;2022-12-10T13:57:53;45.07;;;29.00;;
4182;SDS011;2105;52.300;9.182;2022-12-10T14:00:35;43.47;;;28.90;;
4182;SDS011;2105;52.300;9.182;2022-12-10T14:06:17;52.73;;;29.97;;
4182;SDS011;2105;52.300;9.182;2022-12-10T14:08:53;49.90;;;30.00;;
4182;SDS011;2105;52.300;9.182;2022-12-10T14:11:23;53.57;;;31.00;;
4182;SDS011;2105;52.300;9.182;2022-12-10T14:13:56;47.33;;;28.93;;
4182;SDS011;2105;52.300;9.182;2022-12-10T14:16:26;49.50;;;29.70;;
4182;SDS011;2105;52.300;9.182;2022-12-10T14:18:57;49.17;;;30.77;;
4182;SDS011;2105;52.300;9.182;2022-12-10T14:21:25;45.40;;;29.63;;
4182;SDS011;2105;52.300;9.182;2022-12-10T14:23:55;49.10;;;30.53;;
4182;SDS011;2105;52.300;9.182;2022-12-10T14:26:25;52.73;;;31.33;;
4182;SDS011;2105;52.300;9.182;2022-12-10T14:28:54;68.20;;;35.40;;
4182;SDS011;2105;52.300;9.182;2022-12-10T14:31:24;70.43;;;35.93;;
4182;SDS011;2105;52.300;9.182;2022-12-10T14:33:54;55.57;;;31.80;;
4182;SDS011;2105;52.300;9.182;2022-12-10T14:36:26;46.10;;;28.70;;
4182;SDS011;2105;52.300;9.182;2022-12-10T14:38:57;53.97;;;30.80;;
4182;SDS011;2105;52.300;9.182;2022-12-10T14:41:25;51.00;;;30.23;;
4182;SDS011;2105;52.300;9.182;2022-12-10T14:43:56;51.63;;;30.60;;
4182;SDS011;2105;52.300;9.182;2022-12-10T14:46:28;47.53;;;29.80;;
4182;SDS011;2105;52.300;9.182;2022-12-10T14:48:57;55.40;;;32.03;;
4182;SDS011;2105;52.300;9.182;2022-12-10T14:51:25;52.73;;;31.07;;
4182;SDS011;2105;52.300;9.182;2022-12-10T14:53:59;59.20;;;34.27;;
4182;SDS011;2105;52.300;9.182;2022-12-10T14:56:26;66.27;;;36.30;;
4182;SDS011;2105;52.300;9.182;2022-12-10T14:59:00;83.17;;;38.40;;
4182;SDS011;2105;52.300;9.182;2022-12-10T15:01:32;74.40;;;40.57;;
4182;SDS011;2105;52.300;9.182;2022-12-10T15:04:02;61.67;;;35.00;;
4182;SDS011;2105;52.300;9.182;2022-12-10T15:06:33;59.40;;;34.47;;
4182;SDS011;2105;52.300;9.182;2022-12-10T15:09:03;55.13;;;33.10;;
4182;SDS011;2105;52.300;9.182;2022-12-10T15:11:31;56.17;;;33.27;;
4182;SDS011;2105;52.300;9.182;2022-12-10T15:13:59;52.73;;;31.47;;
4182;SDS011;2105;52.300;9.182;2022-12-10T15:16:28;52.50;;;30.00;;
4182;SDS011;2105;52.300;9.182;2022-12-10T15:19:07;55.70;;;30.80;;
4182;SDS011;2105;52.300;9.182;2022-12-10T15:21:40;48.80;;;28.43;;
4182;SDS011;2105;52.300;9.182;2022-12-10T15:24:13;51.13;;;28.67;;
4182;SDS011;2105;52.300;9.182;2022-12-10T15:26:43;46.53;;;29.17;;
4182;SDS011;2105;52.300;9.182;2022-12-10T15:29:15;47.47;;;29.53;;
4182;SDS011;2105;52.300;9.182;2022-12-10T15:31:57;47.67;;;29.27;;
4182;SDS011;2105;52.300;9.182;2022-12-10T15:34:27;43.10;;;27.10;;
4182;SDS011;2105;52.300;9.182;2022-12-10T15:36:56;46.77;;;27.73;;
4182;SDS011;2105;52.300;9.182;2022-12-10T15:39:30;54.30;;;27.90;;
4182;SDS011;2105;52.300;9.182;2022-12-10T15:42:04;50.13;;;29.00;;
4182;SDS011;2105;52.300;9.182;2022-12-10T15:44:32;48.90;;;27.40;;
4182;SDS011;2105;52.300;9.182;2022-12-10T15:47:08;45.83;;;30.20;;
4182;SDS011;2105;52.300;9.182;2022-12-10T15:49:38;44.67;;;27.03;;
4182;SDS011;2105;52.300;9.182;2022-12-10T15:52:05;44.00;;;28.53;;
4182;SDS011;2105;52.300;9.182;2022-12-10T15:54:38;51.03;;;29.50;;
4182;SDS011;2105;52.300;9.182;2022-12-10T15:57:10;43.50;;;28.30;;
4182;SDS011;2105;52.300;9.182;2022-12-10T15:59:39;44.73;;;28.40;;
4182;SDS011;2105;52.300;9.182;2022-12-10T16:02:24;45.80;;;27.80;;
4182;SDS011;2105;52.300;9.182;2022-12-10T16:04:56;44.13;;;27.70;;
4182;SDS011;2105;52.300;9.182;2022-12-10T16:07:23;46.00;;;28.70;;
4182;SDS011;2105;52.300;9.182;2022-12-10T16:09:51;41.50;;;26.37;;
4182;SDS011;2105;52.300;9.182;2022-12-10T16:12:18;41.63;;;26.27;;